createdAt,value
2022-08-14T00:00:07.178Z,88
2022-08-14T00:01:13.607Z,88
2022-08-14T00:02:18.734Z,88
2022-08-14T00:03:29.321Z,88
2022-08-14T00:04:32.382Z,88
2022-08-14T00:05:34.294Z,88
2022-08-14T00:06:42.021Z,88
2022-08-14T00:07:47.406Z,88
2022-08-14T00:08:52.278Z,88
2022-08-14T00:10:02.432Z,88
2022-08-14T00:11:06.512Z,88
2022-08-14T00:12:23.543Z,88
2022-08-14T00:13:15.382Z,88
2022-08-14T00:14:20.422Z,88
2022-08-14T00:15:37.643Z,88
2022-08-14T00:16:44.732Z,88
2022-08-14T00:18:01.414Z,88
2022-08-14T00:19:18.267Z,88
2022-08-14T00:20:10.624Z,88
2022-08-14T00:21:15.334Z,88
2022-08-14T00:22:22.064Z,88
2022-08-14T00:23:24.134Z,88
2022-08-14T00:24:31.040Z,88
2022-08-14T00:25:41.968Z,88
2022-08-14T00:26:39.426Z,88
2022-08-14T00:27:43.735Z,88
2022-08-14T00:28:48.510Z,88
2022-08-14T00:29:53.090Z,88
2022-08-14T00:30:59.038Z,88
2022-08-14T00:32:31.843Z,88
2022-08-14T00:33:15.169Z,88
2022-08-14T00:34:35.756Z,88
2022-08-14T00:35:17.054Z,88
2022-08-14T00:36:34.848Z,88
2022-08-14T00:37:26.191Z,88
2022-08-14T00:38:31.872Z,88
2022-08-14T00:39:35.271Z,88
2022-08-14T00:40:40.503Z,88
2022-08-14T00:41:45.106Z,88
2022-08-14T00:42:52.977Z,88
2022-08-14T00:43:57.247Z,88
2022-08-14T00:45:03.133Z,88
2022-08-14T00:46:08.401Z,88
2022-08-14T00:47:12.247Z,88
2022-08-14T00:48:34.233Z,88
2022-08-14T00:49:21.568Z,88
2022-08-14T00:50:26.693Z,88
2022-08-14T00:51:34.604Z,88
2022-08-14T00:52:38.278Z,88
2022-08-14T00:53:42.903Z,88
2022-08-14T00:54:46.969Z,88
2022-08-14T00:55:53.974Z,88
2022-08-14T00:56:58.494Z,88
2022-08-14T00:58:06.030Z,88
2022-08-14T00:59:25.739Z,88
2022-08-14T01:00:34.545Z,88
2022-08-14T01:01:36.030Z,88
2022-08-14T01:02:40.309Z,88
2022-08-14T01:03:49.651Z,88
2022-08-14T01:04:54.089Z,88
2022-08-14T01:05:58.338Z,88
2022-08-14T01:07:04.885Z,88
2022-08-14T01:08:20.530Z,88
2022-08-14T01:09:13.537Z,88
2022-08-14T01:10:20.114Z,88
2022-08-14T01:11:24.965Z,88
2022-08-14T01:12:30.240Z,89
2022-08-14T01:13:42.472Z,88
2022-08-14T01:14:40.808Z,88
2022-08-14T01:15:48.243Z,88
2022-08-14T01:16:52.955Z,88
2022-08-14T01:17:57.977Z,88
2022-08-14T01:19:09.173Z,88
2022-08-14T01:20:27.408Z,88
2022-08-14T01:21:29.431Z,88
2022-08-14T01:22:35.549Z,88
2022-08-14T01:23:41.861Z,88
2022-08-14T01:24:50.852Z,89
2022-08-14T01:25:53.766Z,89
2022-08-14T01:26:58.158Z,88
2022-08-14T01:28:03.581Z,88
2022-08-14T01:29:10.917Z,88
2022-08-14T01:30:16.797Z,88
2022-08-14T01:31:21.065Z,88
2022-08-14T01:32:25.745Z,88
2022-08-14T01:33:52.224Z,88
2022-08-14T01:35:16.938Z,88
2022-08-14T01:36:02.879Z,88
2022-08-14T01:36:45.961Z,88
2022-08-14T01:37:54.558Z,88
2022-08-14T01:38:55.141Z,88
2022-08-14T01:39:59.502Z,88
2022-08-14T01:41:06.477Z,88
2022-08-14T01:42:30.890Z,88
2022-08-14T01:43:22.066Z,88
2022-08-14T01:44:31.495Z,88
2022-08-14T01:45:28.893Z,88
2022-08-14T01:46:36.611Z,88
2022-08-14T01:47:37.937Z,88
2022-08-14T01:48:42.781Z,88
2022-08-14T01:49:59.252Z,88
2022-08-14T01:50:51.970Z,88
2022-08-14T01:51:59.729Z,88
2022-08-14T01:53:05.701Z,88
2022-08-14T01:54:09.881Z,88
2022-08-14T01:55:17.045Z,88
2022-08-14T01:56:21.281Z,88
2022-08-14T01:57:25.517Z,88
2022-08-14T01:58:30.369Z,88
2022-08-14T01:59:37.772Z,88
2022-08-14T02:00:39.805Z,88
2022-08-14T02:01:51.623Z,88
2022-08-14T02:02:49.156Z,88
2022-08-14T02:03:53.549Z,88
2022-08-14T02:04:57.898Z,88
2022-08-14T02:06:03.747Z,88
2022-08-14T02:07:07.132Z,88
2022-08-14T02:08:11.876Z,88
2022-08-14T02:10:26.163Z,88
2022-08-14T02:11:27.150Z,88
2022-08-14T02:12:39.266Z,88
2022-08-14T02:13:39.120Z,88
2022-08-14T02:14:50.897Z,88
2022-08-14T02:15:55.057Z,88
2022-08-14T02:16:59.880Z,88
2022-08-14T02:18:05.332Z,88
2022-08-14T02:19:10.017Z,88
2022-08-14T02:20:17.272Z,88
2022-08-14T02:21:23.086Z,88
2022-08-14T02:22:28.572Z,88
2022-08-14T02:23:36.241Z,88
2022-08-14T02:24:38.444Z,88
2022-08-14T02:25:41.906Z,88
2022-08-14T02:26:58.580Z,88
2022-08-14T02:28:19.886Z,88
2022-08-14T02:29:00.286Z,88
2022-08-14T02:30:05.633Z,88
2022-08-14T02:31:10.690Z,88
2022-08-14T02:32:19.923Z,88
2022-08-14T02:33:20.217Z,88
2022-08-14T02:34:28.649Z,88
2022-08-14T02:35:33.323Z,88
2022-08-14T02:37:03.039Z,88
2022-08-14T02:37:47.046Z,88
2022-08-14T02:38:46.793Z,88
2022-08-14T02:39:52.703Z,88
2022-08-14T02:40:56.889Z,88
2022-08-14T02:42:01.105Z,88
2022-08-14T02:43:05.887Z,88
2022-08-14T02:44:10.156Z,88
2022-08-14T02:45:14.508Z,88
2022-08-14T02:46:24.585Z,88
2022-08-14T02:47:26.764Z,88
2022-08-14T02:49:02.187Z,88
2022-08-14T02:49:35.687Z,88
2022-08-14T02:50:40.847Z,88
2022-08-14T02:51:45.552Z,88
2022-08-14T02:52:55.748Z,88
2022-08-14T02:54:03.771Z,88
2022-08-14T02:55:09.119Z,88
2022-08-14T02:56:29.852Z,88
2022-08-14T02:57:39.099Z,88
2022-08-14T02:58:29.263Z,88
2022-08-14T02:59:29.499Z,88
2022-08-14T03:00:34.692Z,88
2022-08-14T03:01:43.169Z,88
2022-08-14T03:02:49.275Z,88
2022-08-14T03:04:51.948Z,88
2022-08-14T03:05:56.680Z,88
2022-08-14T03:07:06.958Z,88
2022-08-14T03:08:05.821Z,88
2022-08-14T03:09:14.552Z,88
2022-08-14T03:10:25.465Z,88
2022-08-14T03:11:23.556Z,88
2022-08-14T03:12:31.108Z,88
2022-08-14T03:13:34.336Z,88
2022-08-14T03:14:46.364Z,88
2022-08-14T03:15:51.132Z,88
2022-08-14T03:16:55.779Z,88
2022-08-14T03:18:00.372Z,88
2022-08-14T03:19:04.928Z,88
2022-08-14T03:20:11.821Z,88
2022-08-14T03:21:15.567Z,88
2022-08-14T03:22:22.271Z,88
2022-08-14T03:23:26.679Z,88
2022-08-14T03:24:31.583Z,88
2022-08-14T03:25:37.504Z,88
2022-08-14T03:26:40.527Z,88
2022-08-14T03:27:47.683Z,88
2022-08-14T03:28:50.264Z,88
2022-08-14T03:29:56.363Z,88
2022-08-14T03:31:08.284Z,88
2022-08-14T03:32:09.423Z,88
2022-08-14T03:33:14.227Z,88
2022-08-14T03:34:25.081Z,88
2022-08-14T03:35:30.915Z,88
2022-08-14T03:37:52.162Z,88
2022-08-14T03:39:11.269Z,88
2022-08-14T03:39:45.394Z,88
2022-08-14T03:40:49.843Z,88
2022-08-14T03:41:54.316Z,88
2022-08-14T03:42:58.616Z,88
2022-08-14T03:45:18.008Z,88
2022-08-14T03:45:18.113Z,88
2022-08-14T03:46:39.394Z,88
2022-08-14T03:47:18.859Z,88
2022-08-14T03:48:29.480Z,88
2022-08-14T03:49:30.775Z,88
2022-08-14T03:50:35.835Z,88
2022-08-14T03:51:40.135Z,88
2022-08-14T03:52:47.977Z,88
2022-08-14T03:53:49.479Z,88
2022-08-14T03:54:54.191Z,88
2022-08-14T03:56:01.823Z,88
2022-08-14T03:57:07.877Z,88
2022-08-14T03:58:12.908Z,88
2022-08-14T03:59:17.787Z,88
2022-08-14T04:00:40.918Z,88
2022-08-14T04:01:29.118Z,88
2022-08-14T04:02:37.565Z,88
2022-08-14T04:03:39.223Z,88
2022-08-14T04:04:44.531Z,88
2022-08-14T04:05:49.411Z,88
2022-08-14T04:06:53.731Z,88
2022-08-14T04:08:00.552Z,88
2022-08-14T04:09:04.927Z,88
2022-08-14T04:10:09.235Z,88
2022-08-14T04:11:13.919Z,88
2022-08-14T04:12:26.315Z,88
2022-08-14T04:13:23.864Z,88
2022-08-14T04:14:27.234Z,88
2022-08-14T04:15:40.843Z,88
2022-08-14T04:16:37.491Z,88
2022-08-14T04:17:41.947Z,88
2022-08-14T04:18:46.687Z,88
2022-08-14T04:19:51.386Z,88
2022-08-14T04:20:57.251Z,88
2022-08-14T04:22:04.231Z,88
2022-08-14T04:23:15.561Z,88
2022-08-14T04:24:19.520Z,88
2022-08-14T04:25:28.387Z,88
2022-08-14T04:26:42.650Z,88
2022-08-14T04:27:48.847Z,88
2022-08-14T04:28:58.635Z,88
2022-08-14T04:29:46.327Z,88
2022-08-14T04:30:52.278Z,88
2022-08-14T04:32:59.427Z,88
2022-08-14T04:33:13.528Z,88
2022-08-14T04:34:11.924Z,88
2022-08-14T04:35:17.874Z,88
2022-08-14T04:36:24.419Z,88
2022-08-14T04:37:29.195Z,88
2022-08-14T04:38:39.819Z,88
2022-08-14T04:39:48.594Z,88
2022-08-14T04:40:58.345Z,88
2022-08-14T04:42:14.096Z,88
2022-08-14T04:43:20.856Z,88
2022-08-14T04:44:36.419Z,88
2022-08-14T04:45:33.931Z,88
2022-08-14T04:46:54.907Z,88
2022-08-14T04:47:46.275Z,88
2022-08-14T04:48:55.348Z,88
2022-08-14T04:50:03.423Z,88
2022-08-14T04:51:07.135Z,88
2022-08-14T04:52:15.273Z,88
2022-08-14T04:53:16.055Z,88
2022-08-14T04:54:20.791Z,88
2022-08-14T04:55:27.773Z,88
2022-08-14T04:56:33.956Z,88
2022-08-14T04:57:35.811Z,88
2022-08-14T04:58:43.931Z,88
2022-08-14T04:59:48.690Z,88
2022-08-14T05:00:54.451Z,88
2022-08-14T05:01:59.248Z,88
2022-08-14T05:03:03.615Z,88
2022-08-14T05:04:07.971Z,88
2022-08-14T05:05:16.023Z,88
2022-08-14T05:06:34.841Z,88
2022-08-14T05:07:34.089Z,88
2022-08-14T05:08:31.586Z,88
2022-08-14T05:09:43.857Z,88
2022-08-14T05:10:44.503Z,88
2022-08-14T05:11:49.163Z,88
2022-08-14T05:13:09.290Z,88
2022-08-14T05:14:16.454Z,88
2022-08-14T05:15:03.027Z,88
2022-08-14T05:16:08.831Z,88
2022-08-14T05:17:13.170Z,88
2022-08-14T05:18:37.253Z,88
2022-08-14T05:19:25.376Z,88
2022-08-14T05:21:05.258Z,88
2022-08-14T05:21:55.708Z,88
2022-08-14T05:22:39.222Z,88
2022-08-14T05:23:44.063Z,88
2022-08-14T05:24:51.653Z,88
2022-08-14T05:25:55.984Z,88
2022-08-14T05:27:03.203Z,88
2022-08-14T05:28:11.363Z,88
2022-08-14T05:29:12.540Z,88
2022-08-14T05:30:17.040Z,88
2022-08-14T05:31:21.477Z,88
2022-08-14T05:32:29.559Z,88
2022-08-14T05:33:33.887Z,88
2022-08-14T05:34:38.127Z,88
2022-08-14T05:35:43.697Z,88
2022-08-14T05:36:50.456Z,88
2022-08-14T05:37:53.439Z,88
2022-08-14T05:38:57.831Z,88
2022-08-14T05:40:02.686Z,88
2022-08-14T05:41:08.790Z,88
2022-08-14T05:42:21.429Z,88
2022-08-14T05:43:16.415Z,88
2022-08-14T05:44:27.985Z,88
2022-08-14T05:45:28.907Z,88
2022-08-14T05:46:36.391Z,88
2022-08-14T05:47:42.051Z,88
2022-08-14T05:48:46.803Z,88
2022-08-14T05:49:56.907Z,88
2022-08-14T05:51:11.774Z,88
2022-08-14T05:52:17.889Z,88
2022-08-14T05:53:20.867Z,88
2022-08-14T05:54:26.869Z,88
2022-08-14T05:55:30.502Z,88
2022-08-14T05:56:36.861Z,88
2022-08-14T05:57:39.311Z,88
2022-08-14T05:58:53.963Z,88
2022-08-14T05:59:58.483Z,88
2022-08-14T06:01:04.179Z,88
2022-08-14T06:02:10.266Z,88
2022-08-14T06:03:13.287Z,88
2022-08-14T06:04:18.067Z,88
2022-08-14T06:05:23.269Z,88
2022-08-14T06:06:35.071Z,88
2022-08-14T06:07:36.163Z,88
2022-08-14T06:08:45.808Z,88
2022-08-14T06:09:51.075Z,88
2022-08-14T06:10:54.943Z,88
2022-08-14T06:12:00.635Z,88
2022-08-14T06:13:05.180Z,88
2022-08-14T06:15:35.827Z,88
2022-08-14T06:16:40.674Z,88
2022-08-14T06:17:46.083Z,88
2022-08-14T06:18:51.950Z,88
2022-08-14T06:19:54.442Z,88
2022-08-14T06:20:58.879Z,88
2022-08-14T06:22:04.369Z,88
2022-08-14T06:23:08.932Z,88
2022-08-14T06:24:18.266Z,88
2022-08-14T06:25:18.308Z,88
2022-08-14T06:26:30.080Z,88
2022-08-14T06:27:34.025Z,88
2022-08-14T06:28:35.387Z,88
2022-08-14T06:29:39.838Z,88
2022-08-14T06:30:46.575Z,88
2022-08-14T06:31:54.442Z,88
2022-08-14T06:35:01.636Z,88
2022-08-14T06:35:10.917Z,88
2022-08-14T06:36:11.894Z,88
2022-08-14T06:37:16.751Z,87
2022-08-14T06:38:27.175Z,88
2022-08-14T06:39:36.179Z,87
2022-08-14T06:40:36.808Z,87
2022-08-14T06:41:56.609Z,87
2022-08-14T06:42:46.537Z,87
2022-08-14T06:43:50.983Z,88
2022-08-14T06:44:55.375Z,87
2022-08-14T06:46:01.646Z,87
2022-08-14T06:47:06.038Z,87
2022-08-14T06:48:12.502Z,87
2022-08-14T06:49:20.331Z,87
2022-08-14T06:50:27.883Z,87
2022-08-14T06:51:39.099Z,87
2022-08-14T06:52:34.303Z,87
2022-08-14T06:53:40.826Z,87
2022-08-14T06:54:47.767Z,87
2022-08-14T06:55:58.642Z,87
2022-08-14T06:56:57.130Z,87
2022-08-14T06:58:01.058Z,87
2022-08-14T06:59:05.507Z,87
2022-08-14T07:00:15.242Z,87
2022-08-14T07:01:23.364Z,87
2022-08-14T07:02:28.741Z,87
2022-08-14T07:03:37.191Z,88
2022-08-14T07:04:47.359Z,87
2022-08-14T07:05:58.316Z,87
2022-08-14T07:07:01.851Z,87
2022-08-14T07:08:06.703Z,87
2022-08-14T07:09:22.426Z,87
2022-08-14T07:10:25.925Z,87
2022-08-14T07:11:30.351Z,87
2022-08-14T07:12:55.258Z,87
2022-08-14T07:13:39.579Z,87
2022-08-14T07:14:44.167Z,87
2022-08-14T07:15:55.057Z,87
2022-08-14T07:16:59.719Z,87
2022-08-14T07:18:04.993Z,87
2022-08-14T07:19:10.244Z,87
2022-08-14T07:20:15.019Z,87
2022-08-14T07:21:20.043Z,87
2022-08-14T07:22:24.407Z,87
2022-08-14T07:23:31.075Z,87
2022-08-14T07:24:37.931Z,87
2022-08-14T07:25:47.325Z,87
2022-08-14T07:26:51.703Z,87
2022-08-14T07:27:55.961Z,87
2022-08-14T07:29:00.459Z,87
2022-08-14T07:30:09.219Z,88
2022-08-14T07:31:15.659Z,87
2022-08-14T07:32:33.947Z,87
2022-08-14T07:33:29.408Z,87
2022-08-14T07:34:36.777Z,87
2022-08-14T07:35:43.172Z,87
2022-08-14T07:36:53.604Z,87
2022-08-14T07:37:52.640Z,87
2022-08-14T07:38:55.968Z,87
2022-08-14T07:40:06.582Z,87
2022-08-14T07:42:19.995Z,87
2022-08-14T07:43:25.599Z,87
2022-08-14T07:44:32.995Z,87
2022-08-14T07:45:38.066Z,87
2022-08-14T07:46:45.959Z,87
2022-08-14T07:47:50.672Z,87
2022-08-14T07:48:55.407Z,87
2022-08-14T07:49:59.973Z,87
2022-08-14T07:51:11.571Z,87
2022-08-14T07:52:22.084Z,87
2022-08-14T07:53:21.455Z,87
2022-08-14T07:54:29.775Z,87
2022-08-14T07:55:30.699Z,87
2022-08-14T07:56:44.706Z,87
2022-08-14T07:57:39.919Z,87
2022-08-14T07:58:51.523Z,87
2022-08-14T07:59:50.019Z,87
2022-08-14T08:00:56.530Z,87
2022-08-14T08:02:02.287Z,87
2022-08-14T08:03:06.889Z,87
2022-08-14T08:04:16.529Z,87
2022-08-14T08:05:16.063Z,87
2022-08-14T08:06:20.487Z,88
2022-08-14T08:07:29.374Z,87
2022-08-14T08:08:31.477Z,87
2022-08-14T08:09:35.691Z,87
2022-08-14T08:10:47.032Z,87
2022-08-14T08:11:46.832Z,87
2022-08-14T08:12:51.703Z,87
2022-08-14T08:13:56.599Z,87
2022-08-14T08:15:03.347Z,87
2022-08-14T08:16:06.036Z,87
2022-08-14T08:17:10.760Z,87
2022-08-14T08:18:20.664Z,87
2022-08-14T08:19:20.043Z,87
2022-08-14T08:20:24.391Z,87
2022-08-14T08:21:28.923Z,87
2022-08-14T08:22:38.179Z,87
2022-08-14T08:23:43.738Z,87
2022-08-14T08:24:47.328Z,87
2022-08-14T08:25:52.925Z,87
2022-08-14T08:26:57.451Z,87
2022-08-14T08:28:08.440Z,87
2022-08-14T08:29:14.995Z,87
2022-08-14T08:30:19.753Z,87
2022-08-14T08:31:24.795Z,87
2022-08-14T08:32:29.810Z,87
2022-08-14T08:33:41.868Z,87
2022-08-14T08:34:46.740Z,87
2022-08-14T08:35:51.231Z,87
2022-08-14T08:36:55.775Z,87
2022-08-14T08:38:01.310Z,87
2022-08-14T08:39:15.929Z,87
2022-08-14T08:40:12.371Z,87
2022-08-14T08:41:22.179Z,87
2022-08-14T08:42:31.344Z,87
2022-08-14T08:43:31.083Z,87
2022-08-14T08:44:35.519Z,87
2022-08-14T08:45:39.979Z,86
2022-08-14T08:46:45.139Z,86
2022-08-14T08:47:49.927Z,86
2022-08-14T08:50:22.939Z,87
2022-08-14T08:51:18.363Z,87
2022-08-14T08:52:30.869Z,87
2022-08-14T08:53:36.836Z,87
2022-08-14T08:54:41.492Z,87
2022-08-14T08:55:46.263Z,87
2022-08-14T08:56:51.931Z,87
2022-08-14T08:57:55.507Z,87
2022-08-14T08:59:00.131Z,87
2022-08-14T09:00:09.934Z,86
2022-08-14T09:01:15.456Z,87
2022-08-14T09:02:20.384Z,87
2022-08-14T09:03:25.540Z,87
2022-08-14T09:04:30.811Z,87
2022-08-14T09:05:38.091Z,87
2022-08-14T09:06:56.989Z,87
2022-08-14T09:07:56.813Z,87
2022-08-14T09:09:12.465Z,87
2022-08-14T09:10:20.806Z,87
2022-08-14T09:11:27.020Z,87
2022-08-14T09:12:31.912Z,87
2022-08-14T09:13:38.004Z,87
2022-08-14T09:14:45.244Z,87
2022-08-14T09:15:50.135Z,87
2022-08-14T09:16:55.106Z,87
2022-08-14T09:17:59.607Z,87
2022-08-14T09:19:03.844Z,86
2022-08-14T09:20:12.290Z,86
2022-08-14T09:21:16.567Z,86
2022-08-14T09:22:33.122Z,86
2022-08-14T09:23:34.718Z,86
2022-08-14T09:24:36.380Z,86
2022-08-14T09:25:59.194Z,86
2022-08-14T09:26:49.088Z,86
2022-08-14T09:27:56.711Z,86
2022-08-14T09:29:01.232Z,86
2022-08-14T09:30:13.044Z,86
2022-08-14T09:31:17.528Z,86
2022-08-14T09:32:58.585Z,86
2022-08-14T09:33:22.789Z,86
2022-08-14T09:34:34.071Z,86
2022-08-14T09:35:43.531Z,87
2022-08-14T09:36:47.847Z,87
2022-08-14T09:37:57.246Z,86
2022-08-14T09:39:14.820Z,87
2022-08-14T09:40:24.713Z,87
2022-08-14T09:41:36.806Z,86
2022-08-14T09:42:50.281Z,86
2022-08-14T09:44:04.591Z,86
2022-08-14T09:45:08.870Z,86
2022-08-14T09:46:25.649Z,87
2022-08-14T09:47:26.401Z,86
2022-08-14T09:48:41.295Z,86
2022-08-14T09:49:47.215Z,86
2022-08-14T09:50:50.454Z,86
2022-08-14T09:51:58.367Z,86
2022-08-14T09:53:05.182Z,86
2022-08-14T09:54:13.253Z,87
2022-08-14T09:55:15.163Z,86
2022-08-14T09:56:24.496Z,86
2022-08-14T09:57:24.918Z,86
2022-08-14T09:58:29.226Z,86
2022-08-14T09:59:41.563Z,86
2022-08-14T10:00:49.003Z,86
2022-08-14T10:01:56.431Z,86
2022-08-14T10:03:01.188Z,86
2022-08-14T10:05:08.862Z,86
2022-08-14T10:06:13.102Z,86
2022-08-14T10:07:17.454Z,86
2022-08-14T10:08:25.687Z,86
2022-08-14T10:09:25.947Z,86
2022-08-14T10:10:34.509Z,86
2022-08-14T10:11:35.564Z,86
2022-08-14T10:12:39.586Z,86
2022-08-14T10:13:52.605Z,86
2022-08-14T10:14:53.189Z,86
2022-08-14T10:15:53.995Z,86
2022-08-14T10:17:01.832Z,87
2022-08-14T10:18:06.226Z,86
2022-08-14T10:19:13.235Z,86
2022-08-14T10:20:40.037Z,86
2022-08-14T10:21:22.492Z,86
2022-08-14T10:23:13.813Z,86
2022-08-14T10:23:34.033Z,86
2022-08-14T10:24:44.106Z,86
2022-08-14T10:25:48.508Z,86
2022-08-14T10:26:56.308Z,86
2022-08-14T10:27:57.690Z,86
2022-08-14T10:29:19.193Z,86
2022-08-14T10:30:12.173Z,86
2022-08-14T10:31:14.574Z,86
2022-08-14T10:32:28.223Z,86
2022-08-14T10:33:28.974Z,86
2022-08-14T10:34:35.855Z,86
2022-08-14T10:35:38.091Z,86
2022-08-14T10:36:44.939Z,86
2022-08-14T10:37:47.671Z,86
2022-08-14T10:38:52.150Z,86
2022-08-14T10:40:02.263Z,86
2022-08-14T10:41:02.130Z,86
2022-08-14T10:42:16.823Z,86
2022-08-14T10:43:17.993Z,86
2022-08-14T10:44:23.430Z,86
2022-08-14T10:45:27.882Z,86
2022-08-14T10:47:37.570Z,86
2022-08-14T10:48:07.006Z,86
2022-08-14T10:48:48.742Z,86
2022-08-14T10:49:55.866Z,86
2022-08-14T10:51:00.063Z,86
2022-08-14T10:52:05.156Z,85
2022-08-14T10:53:09.758Z,86
2022-08-14T10:54:16.606Z,86
2022-08-14T10:55:20.979Z,86
2022-08-14T10:56:32.133Z,85
2022-08-14T10:57:32.055Z,85
2022-08-14T10:58:36.370Z,85
2022-08-14T10:59:43.140Z,85
2022-08-14T11:00:49.994Z,85
2022-08-14T11:01:54.618Z,85
2022-08-14T11:02:59.740Z,85
2022-08-14T11:04:03.973Z,85
2022-08-14T11:05:08.398Z,85
2022-08-14T11:06:17.974Z,85
2022-08-14T11:07:22.550Z,85
2022-08-14T11:08:27.099Z,85
2022-08-14T11:09:32.363Z,85
2022-08-14T11:10:36.376Z,85
2022-08-14T11:11:54.989Z,85
2022-08-14T11:12:55.761Z,84
2022-08-14T11:14:00.418Z,84
2022-08-14T11:15:05.477Z,84
2022-08-14T11:16:10.809Z,83
2022-08-14T11:17:15.721Z,83
2022-08-14T11:18:20.971Z,82
2022-08-14T11:19:25.052Z,82
2022-08-14T11:20:28.970Z,81
2022-08-14T11:21:34.073Z,81
2022-08-14T11:22:53.197Z,80
2022-08-14T11:23:45.069Z,80
2022-08-14T11:24:50.228Z,80
2022-08-14T11:25:54.186Z,80
2022-08-14T11:27:01.449Z,80
2022-08-14T11:28:05.861Z,78
2022-08-14T11:29:10.777Z,78
2022-08-14T11:30:49.506Z,78
2022-08-14T11:31:19.820Z,77
2022-08-14T11:32:27.274Z,77
2022-08-14T11:33:32.418Z,76
2022-08-14T11:34:38.246Z,76
2022-08-14T11:35:44.388Z,76
2022-08-14T11:37:02.365Z,77
2022-08-14T11:37:52.901Z,77
2022-08-14T11:39:00.768Z,77
2022-08-14T11:40:05.407Z,78
2022-08-14T11:41:17.027Z,75
2022-08-14T11:43:49.635Z,76
2022-08-14T11:44:50.261Z,76
2022-08-14T11:45:54.665Z,75
2022-08-14T11:46:58.969Z,75
2022-08-14T11:48:11.066Z,73
2022-08-14T11:49:18.933Z,73
2022-08-14T11:50:33.714Z,73
2022-08-14T11:51:52.811Z,73
2022-08-14T11:52:44.278Z,73
2022-08-14T11:53:48.637Z,74
2022-08-14T11:54:56.809Z,73
2022-08-14T11:56:01.349Z,73
2022-08-14T11:57:18.716Z,74
2022-08-14T11:58:37.977Z,74
2022-08-14T11:59:44.051Z,74
2022-08-14T12:00:46.537Z,74
2022-08-14T12:01:51.693Z,73
2022-08-14T12:03:04.090Z,73
2022-08-14T12:05:35.868Z,74
2022-08-14T12:06:49.289Z,74
2022-08-14T12:07:56.269Z,74
2022-08-14T12:09:00.840Z,74
2022-08-14T12:10:25.359Z,73
2022-08-14T12:11:13.030Z,72
2022-08-14T12:12:34.913Z,73
2022-08-14T12:13:27.331Z,72
2022-08-14T12:14:44.386Z,72
2022-08-14T12:15:54.005Z,72
2022-08-14T12:16:59.509Z,72
2022-08-14T12:18:11.300Z,72
2022-08-14T12:19:13.941Z,73
2022-08-14T12:20:33.316Z,72
2022-08-14T12:21:37.906Z,72
2022-08-14T12:22:42.964Z,71
2022-08-14T12:23:46.520Z,72
2022-08-14T12:25:01.808Z,73
2022-08-14T12:26:12.289Z,73
2022-08-14T12:27:16.838Z,73
2022-08-14T12:28:26.817Z,72
2022-08-14T12:29:26.077Z,71
2022-08-14T12:30:34.600Z,71
2022-08-14T12:31:44.407Z,72
2022-08-14T12:32:45.257Z,72
2022-08-14T12:33:53.622Z,71
2022-08-14T12:35:00.079Z,71
2022-08-14T12:36:05.962Z,71
2022-08-14T12:37:09.180Z,71
2022-08-14T12:39:53.228Z,70
2022-08-14T12:41:03.833Z,70
2022-08-14T12:42:26.926Z,69
2022-08-14T12:43:18.009Z,69
2022-08-14T12:44:37.030Z,70
2022-08-14T12:45:56.810Z,70
2022-08-14T12:47:01.241Z,70
2022-08-14T12:48:20.855Z,70
2022-08-14T12:49:12.909Z,70
2022-08-14T12:50:17.353Z,70
2022-08-14T12:51:25.085Z,70
2022-08-14T12:52:30.825Z,70
2022-08-14T12:53:36.286Z,70
2022-08-14T12:54:38.197Z,70
2022-08-14T12:57:13.645Z,71
2022-08-14T12:58:29.120Z,71
2022-08-14T12:59:20.846Z,70
2022-08-14T13:00:26.561Z,70
2022-08-14T13:01:56.607Z,69
2022-08-14T13:02:36.804Z,69
2022-08-14T13:03:41.209Z,70
2022-08-14T13:04:45.694Z,71
2022-08-14T13:05:50.413Z,70
2022-08-14T13:06:55.417Z,69
2022-08-14T13:08:33.137Z,68
2022-08-14T13:09:28.073Z,68
2022-08-14T13:12:31.555Z,68
2022-08-14T13:13:13.388Z,68
2022-08-14T13:14:07.277Z,68
2022-08-14T13:15:13.600Z,68
2022-08-14T13:16:20.215Z,68
2022-08-14T13:17:22.913Z,68
2022-08-14T13:18:27.577Z,68
2022-08-14T13:19:31.949Z,68
2022-08-14T13:20:36.527Z,68
2022-08-14T13:21:59.163Z,68
2022-08-14T13:22:48.349Z,69
2022-08-14T13:23:58.363Z,69
2022-08-14T13:25:05.064Z,68
2022-08-14T13:26:08.093Z,69
2022-08-14T13:27:12.669Z,70
2022-08-14T13:28:32.124Z,70
2022-08-14T13:29:24.713Z,68
2022-08-14T13:30:32.488Z,68
2022-08-14T13:31:49.869Z,68
2022-08-14T13:32:57.863Z,67
2022-08-14T13:34:03.089Z,67
2022-08-14T13:35:10.966Z,68
2022-08-14T13:36:19.920Z,68
2022-08-14T13:37:16.887Z,67
2022-08-14T13:38:21.221Z,67
2022-08-14T13:39:25.889Z,67
2022-08-14T13:40:41.177Z,67
2022-08-14T13:41:55.903Z,67
2022-08-14T13:42:55.485Z,66
2022-08-14T13:44:03.021Z,66
2022-08-14T13:45:07.813Z,66
2022-08-14T13:46:12.569Z,67
2022-08-14T13:47:30.561Z,65
2022-08-14T13:50:10.389Z,66
2022-08-14T13:51:15.029Z,65
2022-08-14T13:52:48.860Z,66
2022-08-14T13:53:33.233Z,66
2022-08-14T13:54:35.153Z,66
2022-08-14T13:55:44.717Z,66
2022-08-14T13:56:48.920Z,66
2022-08-14T13:58:02.891Z,66
2022-08-14T13:58:58.105Z,67
2022-08-14T14:00:02.561Z,67
2022-08-14T14:01:07.421Z,67
2022-08-14T14:02:23.137Z,67
2022-08-14T14:03:19.973Z,66
2022-08-14T14:04:35.553Z,66
2022-08-14T14:05:52.434Z,66
2022-08-14T14:06:58.625Z,66
2022-08-14T14:08:05.161Z,65
2022-08-14T14:09:11.761Z,65
2022-08-14T14:10:23.260Z,66
2022-08-14T14:11:29.988Z,65
2022-08-14T14:12:36.323Z,66
2022-08-14T14:13:35.309Z,63
2022-08-14T14:14:45.328Z,64
2022-08-14T14:15:48.805Z,64
2022-08-14T14:16:53.065Z,65
2022-08-14T14:18:03.636Z,64
2022-08-14T14:19:18.240Z,64
2022-08-14T14:20:34.792Z,66
2022-08-14T14:21:29.889Z,65
2022-08-14T14:23:02.091Z,64
2022-08-14T14:23:48.315Z,65
2022-08-14T14:24:54.574Z,66
2022-08-14T14:26:03.849Z,66
2022-08-14T14:27:30.266Z,65
2022-08-14T14:28:12.500Z,66
2022-08-14T14:29:16.939Z,66
2022-08-14T14:30:46.701Z,66
2022-08-14T14:31:29.853Z,66
2022-08-14T14:32:34.477Z,66
2022-08-14T14:33:47.216Z,66
2022-08-14T14:34:44.245Z,65
2022-08-14T14:35:49.708Z,66
2022-08-14T14:36:55.522Z,66
2022-08-14T14:37:58.330Z,66
2022-08-14T14:39:11.868Z,66
2022-08-14T14:41:45.704Z,65
2022-08-14T14:42:51.945Z,65
2022-08-14T14:43:56.684Z,65
2022-08-14T14:45:12.368Z,64
2022-08-14T14:46:16.493Z,65
2022-08-14T14:47:40.921Z,65
2022-08-14T14:48:59.632Z,65
2022-08-14T14:50:14.292Z,65
2022-08-14T14:51:20.268Z,64
2022-08-14T14:52:38.856Z,64
2022-08-14T14:53:39.289Z,64
2022-08-14T14:54:43.169Z,64
2022-08-14T14:56:48.748Z,64
2022-08-14T14:58:07.944Z,64
2022-08-14T14:59:12.357Z,64
2022-08-14T15:00:19.452Z,63
2022-08-14T15:03:11.032Z,64
2022-08-14T15:04:38.098Z,64
2022-08-14T15:05:41.845Z,64
2022-08-14T15:08:52.803Z,64
2022-08-14T15:09:41.077Z,64
2022-08-14T15:10:46.554Z,65
2022-08-14T15:11:49.700Z,65
2022-08-14T15:13:05.252Z,65
2022-08-14T15:14:54.384Z,65
2022-08-14T15:15:12.517Z,64
2022-08-14T15:16:18.764Z,65
2022-08-14T15:17:23.101Z,64
2022-08-14T15:18:36.441Z,64
2022-08-14T15:19:32.192Z,65
2022-08-14T15:20:36.767Z,65
2022-08-14T15:21:42.157Z,65
2022-08-14T15:23:08.299Z,65
2022-08-14T15:25:32.122Z,66
2022-08-14T15:26:36.458Z,66
2022-08-14T15:27:46.891Z,67
2022-08-14T15:29:03.401Z,66
2022-08-14T15:30:11.768Z,67
2022-08-14T15:31:31.507Z,67
2022-08-14T15:32:35.647Z,66
2022-08-14T15:34:01.271Z,65
2022-08-14T15:34:50.910Z,65
2022-08-14T15:35:53.551Z,65
2022-08-14T15:36:57.941Z,66
2022-08-14T15:39:53.345Z,65
2022-08-14T15:41:00.763Z,65
2022-08-14T15:42:09.263Z,65
2022-08-14T15:43:20.744Z,65
2022-08-14T15:44:28.906Z,65
2022-08-14T15:45:40.400Z,66
2022-08-14T15:48:32.192Z,65
2022-08-14T15:49:36.755Z,65
2022-08-14T15:50:41.396Z,64
2022-08-14T15:53:22.493Z,64
2022-08-14T15:54:31.368Z,64
2022-08-14T15:55:38.623Z,64
2022-08-14T15:56:43.774Z,66
2022-08-14T15:57:51.603Z,66
2022-08-14T15:58:54.191Z,66
2022-08-14T16:03:28.067Z,66
2022-08-14T16:04:31.327Z,66
2022-08-14T16:05:38.091Z,66
2022-08-14T16:06:45.511Z,66
2022-08-14T16:07:49.919Z,66
2022-08-14T16:09:03.587Z,66
2022-08-14T16:10:29.410Z,65
2022-08-14T16:11:32.676Z,66
2022-08-14T16:12:41.485Z,66
2022-08-14T16:13:45.487Z,65
2022-08-14T16:15:06.635Z,65
2022-08-14T16:16:34.265Z,65
2022-08-14T16:17:17.764Z,66
2022-08-14T16:20:07.619Z,65